Time;durP1;ratioP1;P1;durP2;ratioP2;P2;SDS_P1;SDS_P2;PMS_P1;PMS_P2;Temp;Humidity;BMP_temperature;BMP_pressure;BME280_temperature;BME280_humidity;BME280_pressure;Samples;Min_cycle;Max_cycle;Signal;HPM_P1;HPM_P2
2022/09/04 00:02:19;;;;;;;4.30;3.00;;;20.40;56.00;;;;;;5016930;28;20061;-46
2022/09/04 00:04:56;;;;;;;5.03;3.20;;;20.30;56.00;;;;;;5020026;28;20057;-47
2022/09/04 00:07:28;;;;;;;5.28;2.65;;;20.30;56.00;;;;;;5019729;28;20061;-48
2022/09/04 00:10:10;;;;;;;3.40;2.75;;;20.30;56.10;;;;;;5010943;28;20061;-49
2022/09/04 00:12:44;;;;;;;4.43;2.90;;;20.30;56.20;;;;;;5020444;28;20405;-51
2022/09/04 00:15:14;;;;;;;2.97;2.60;;;20.30;56.20;;;;;;5019945;28;20057;-44
2022/09/04 00:17:50;;;;;;;3.72;2.50;;;20.30;56.20;;;;;;5021948;28;20062;-49
2022/09/04 00:20:30;;;;;;;3.42;2.65;;;20.30;56.20;;;;;;5012076;28;20061;-48
2022/09/04 00:23:04;;;;;;;4.07;2.80;;;20.30;56.30;;;;;;5018420;28;20053;-50
2022/09/04 00:25:40;;;;;;;2.88;2.53;;;20.20;56.30;;;;;;5017632;28;20490;-48
2022/09/04 00:28:17;;;;;;;4.00;2.50;;;20.20;56.30;;;;;;5017983;28;20054;-51
2022/09/04 00:30:50;;;;;;;4.57;3.10;;;20.20;56.40;;;;;;5010845;28;20056;-51
2022/09/04 00:33:24;;;;;;;4.22;2.35;;;20.20;56.40;;;;;;5021703;28;20053;-49
2022/09/04 00:35:55;;;;;;;3.50;2.80;;;20.20;56.40;;;;;;5011945;28;20061;-49
2022/09/04 00:38:35;;;;;;;3.17;2.45;;;20.20;56.40;;;;;;5022362;28;20053;-47
2022/09/04 00:41:13;;;;;;;3.60;2.78;;;20.20;56.60;;;;;;5013577;28;20057;-45
2022/09/04 00:44:17;;;;;;;4.22;2.60;;;20.10;56.50;;;;;;5019701;28;20415;-48
2022/09/04 00:47:18;;;;;;;2.90;2.60;;;20.10;56.60;;;;;;5017585;28;20053;-46
2022/09/04 00:50:27;;;;;;;2.83;2.53;;;20.10;56.60;;;;;;5002511;28;20064;-45
2022/09/04 00:53:12;;;;;;;3.70;2.60;;;20.10;56.70;;;;;;4984664;28;20045;-48
2022/09/04 00:55:52;;;;;;;2.45;2.25;;;20.10;56.60;;;;;;5020105;28;20064;-48
2022/09/04 00:58:33;;;;;;;3.25;2.85;;;20.10;56.70;;;;;;5018803;28;20477;-48
2022/09/04 01:01:01;;;;;;;3.08;2.53;;;20.10;56.80;;;;;;5012672;28;20049;-56
2022/09/04 01:03:46;;;;;;;3.25;2.60;;;20.10;56.70;;;;;;5020750;28;20053;-47
2022/09/04 01:06:28;;;;;;;3.50;2.58;;;20.10;56.90;;;;;;5020106;28;20054;-49
2022/09/04 01:09:31;;;;;;;3.90;2.78;;;20.00;56.80;;;;;;5016341;28;20078;-55
2022/09/04 01:12:11;;;;;;;5.07;2.50;;;20.00;56.90;;;;;;5015008;28;20045;-56
2022/09/04 01:14:47;;;;;;;4.45;2.65;;;20.00;56.80;;;;;;5024652;28;20065;-48
2022/09/04 01:17:22;;;;;;;3.50;3.20;;;20.00;56.90;;;;;;5022986;28;20060;-47
2022/09/04 01:19:55;;;;;;;4.03;3.20;;;20.00;56.90;;;;;;5019410;28;20049;-45
2022/09/04 01:22:54;;;;;;;6.30;3.22;;;20.00;56.90;;;;;;5023507;28;20045;-52
2022/09/04 01:25:33;;;;;;;4.78;3.63;;;19.90;57.00;;;;;;5016797;28;20567;-47
2022/09/04 01:28:07;;;;;;;3.65;3.13;;;19.90;57.00;;;;;;5022544;28;20409;-51
2022/09/04 01:30:43;;;;;;;6.22;3.30;;;19.90;56.90;;;;;;5018321;28;20057;-51
2022/09/04 01:33:18;;;;;;;3.70;3.25;;;19.90;57.00;;;;;;5023058;28;20065;-47
2022/09/04 01:35:55;;;;;;;5.53;3.60;;;19.90;57.00;;;;;;5022118;28;20508;-55
2022/09/04 01:38:31;;;;;;;3.88;3.47;;;19.90;57.10;;;;;;5007709;28;20049;-45
2022/09/04 01:41:06;;;;;;;6.50;4.40;;;19.80;57.00;;;;;;5013528;28;20536;-49
2022/09/04 01:43:34;;;;;;;5.97;3.92;;;19.80;57.30;;;;;;5021406;28;20516;-46
2022/09/04 01:46:24;;;;;;;4.22;3.38;;;19.80;57.20;;;;;;5022631;28;20433;-47
2022/09/04 01:48:57;;;;;;;5.85;3.75;;;19.80;57.30;;;;;;5019398;28;20498;-54
2022/09/04 01:51:32;;;;;;;5.38;4.18;;;19.80;57.80;;;;;;5018630;28;20049;-51
2022/09/04 01:54:12;;;;;;;4.28;3.88;;;19.80;57.30;;;;;;5021656;28;20484;-49
2022/09/04 01:56:48;;;;;;;6.03;4.53;;;19.80;57.40;;;;;;5013649;28;20053;-47
2022/09/04 01:59:25;;;;;;;4.65;4.20;;;19.70;57.40;;;;;;5021091;28;20057;-44
2022/09/04 02:01:57;;;;;;;5.90;4.40;;;19.70;57.40;;;;;;5014907;28;20528;-53
2022/09/04 02:04:31;;;;;;;5.88;4.55;;;19.70;57.30;;;;;;5022232;28;20057;-47
2022/09/04 02:07:08;;;;;;;6.90;5.40;;;19.70;57.50;;;;;;5023595;28;20057;-48
2022/09/04 02:09:42;;;;;;;6.28;5.18;;;19.70;57.60;;;;;;5018013;28;20058;-53
2022/09/04 02:12:17;;;;;;;5.32;4.70;;;19.60;57.50;;;;;;5015371;28;20045;-48
2022/09/04 02:14:56;;;;;;;7.90;5.65;;;19.60;57.50;;;;;;5016875;28;20053;-53
2022/09/04 02:17:34;;;;;;;6.25;5.25;;;19.60;57.70;;;;;;5014906;28;20050;-48
2022/09/04 02:20:12;;;;;;;6.07;5.20;;;19.60;57.70;;;;;;5011506;28;20057;-55
2022/09/04 02:22:51;;;;;;;6.63;5.55;;;19.60;57.70;;;;;;5018306;28;20065;-48
2022/09/04 02:25:25;;;;;;;8.75;6.75;;;19.60;57.70;;;;;;5018072;28;20064;-50
2022/09/04 02:28:05;;;;;;;8.38;6.13;;;19.60;57.80;;;;;;5014647;28;20049;-48
2022/09/04 02:30:41;;;;;;;9.20;6.93;;;19.60;57.90;;;;;;5009282;28;20517;-48
2022/09/04 02:33:14;;;;;;;8.85;7.15;;;19.60;57.90;;;;;;5016406;28;20054;-47
2022/09/04 02:35:49;;;;;;;9.98;7.43;;;19.60;57.90;;;;;;5023304;28;20057;-49
2022/09/04 02:38:29;;;;;;;10.82;7.75;;;19.60;57.90;;;;;;5020572;28;20054;-47
2022/09/04 02:41:04;;;;;;;9.90;7.57;;;19.60;58.00;;;;;;5018520;28;20076;-50
2022/09/04 02:43:46;;;;;;;10.77;8.20;;;19.60;58.20;;;;;;5023282;28;20068;-49
2022/09/04 02:46:23;;;;;;;10.85;7.88;;;19.60;58.10;;;;;;5020691;28;20056;-54
2022/09/04 02:49:06;;;;;;;10.32;7.72;;;19.60;58.10;;;;;;5017263;28;20511;-50
2022/09/04 02:51:49;;;;;;;10.40;8.30;;;19.60;58.20;;;;;;5015765;28;20058;-44
2022/09/04 02:54:25;;;;;;;13.43;8.27;;;19.60;58.20;;;;;;5015369;28;20060;-46
2022/09/04 02:57:06;;;;;;;10.68;8.48;;;19.60;58.20;;;;;;5020894;28;20064;-55
2022/09/04 02:59:42;;;;;;;11.25;8.18;;;19.60;58.30;;;;;;5021561;28;20057;-60
2022/09/04 03:02:19;;;;;;;10.70;8.52;;;19.60;58.30;;;;;;5019402;28;20060;-60
2022/09/04 03:04:52;;;;;;;10.00;8.43;;;19.60;58.30;;;;;;5022301;28;20068;-59
2022/09/04 03:07:25;;;;;;;11.32;8.65;;;19.60;58.30;;;;;;5020406;28;20524;-60
2022/09/04 03:09:57;;;;;;;11.05;8.80;;;19.60;58.40;;;;;;5019100;28;20057;-59
2022/09/04 03:12:32;;;;;;;14.48;9.95;;;19.60;58.40;;;;;;5022364;28;20512;-58
2022/09/04 03:15:06;;;;;;;11.13;8.90;;;19.60;58.50;;;;;;5018478;28;20057;-60
2022/09/04 03:17:45;;;;;;;14.40;9.43;;;19.60;58.50;;;;;;5011438;28;20559;-57
2022/09/04 03:20:19;;;;;;;12.75;9.63;;;19.70;58.60;;;;;;5012678;28;20061;-60
2022/09/04 03:22:52;;;;;;;11.98;9.63;;;19.70;58.60;;;;;;5021935;28;20049;-59
2022/09/04 03:25:36;;;;;;;11.18;9.40;;;19.70;58.70;;;;;;5016353;28;20053;-60
2022/09/04 03:28:05;;;;;;;11.50;8.75;;;19.70;58.70;;;;;;5022737;28;20512;-60
2022/09/04 03:30:35;;;;;;;11.15;8.50;;;19.70;58.60;;;;;;5017011;28;20065;-60
2022/09/04 03:33:13;;;;;;;34.97;22.30;;;19.70;58.70;;;;;;5015535;28;20049;-60
2022/09/04 03:35:48;;;;;;;30.55;20.20;;;19.70;58.80;;;;;;5014284;28;20386;-55
2022/09/04 03:38:21;;;;;;;18.15;12.30;;;19.60;58.70;;;;;;5018146;28;20494;-60
2022/09/04 03:41:01;;;;;;;11.38;9.43;;;19.70;58.80;;;;;;5012883;28;20056;-59
2022/09/04 03:43:43;;;;;;;11.73;8.93;;;19.70;58.80;;;;;;5020118;28;20059;-58
2022/09/04 03:46:21;;;;;;;10.70;8.48;;;19.70;58.90;;;;;;5015740;28;20057;-59
2022/09/04 03:49:05;;;;;;;11.32;8.68;;;19.70;58.90;;;;;;5015847;28;20057;-60
2022/09/04 03:51:43;;;;;;;11.65;8.90;;;19.70;59.40;;;;;;5015598;28;20056;-59
2022/09/04 03:54:24;;;;;;;10.82;8.40;;;19.70;58.90;;;;;;5019220;28;20053;-57
2022/09/04 03:57:19;;;;;;;11.65;9.60;;;19.70;59.00;;;;;;5020595;28;20061;-60
2022/09/04 03:59:54;;;;;;;;;;;19.70;59.10;;;;;;5015739;28;20084;-55
2022/09/04 04:02:34;;;;;;;9.20;7.38;;;19.70;58.60;;;;;;5015264;28;20288;-59
2022/09/04 04:05:26;;;;;;;11.43;9.07;;;19.70;58.70;;;;;;5009641;28;20384;-59
2022/09/04 04:08:22;;;;;;;128.20;59.53;;;19.70;59.00;;;;;;5015837;28;20497;-60
2022/09/04 04:11:02;;;;;;;40.30;24.25;;;19.70;58.90;;;;;;5014561;28;20056;-60
2022/09/04 04:13:53;;;;;;;16.58;12.02;;;19.70;59.00;;;;;;5016530;28;20477;-60
2022/09/04 04:16:40;;;;;;;12.27;9.23;;;19.70;59.10;;;;;;5015662;28;20518;-60
2022/09/04 04:19:26;;;;;;;12.18;9.50;;;19.70;59.10;;;;;;5017266;28;20053;-57
2022/09/04 04:22:16;;;;;;;12.80;9.23;;;19.70;59.30;;;;;;5018599;28;20069;-60
2022/09/04 04:25:08;;;;;;;10.05;8.57;;;19.70;59.30;;;;;;5018408;28;20425;-57
2022/09/04 04:27:48;;;;;;;10.00;8.20;;;19.70;59.30;;;;;;5018998;28;20116;-60
2022/09/04 04:30:17;;;;;;;8.88;7.80;;;19.70;59.30;;;;;;5017243;28;20485;-60
2022/09/04 04:33:11;;;;;;;14.18;8.55;;;19.70;59.70;;;;;;5021772;28;20057;-59
2022/09/04 04:35:44;;;;;;;10.80;8.75;;;19.70;59.40;;;;;;5019674;28;20058;-60
2022/09/04 04:38:25;;;;;;;11.23;9.20;;;19.70;59.30;;;;;;5019202;28;20060;-60
2022/09/04 04:41:09;;;;;;;13.70;8.98;;;19.70;59.40;;;;;;5016751;28;20058;-59
2022/09/04 04:43:51;;;;;;;11.25;9.38;;;19.70;59.50;;;;;;5020146;28;20054;-60
2022/09/04 04:46:27;;;;;;;11.68;9.25;;;19.70;59.40;;;;;;5019872;28;20053;-60
2022/09/04 04:49:23;;;;;;;11.27;8.88;;;19.70;59.40;;;;;;5023345;28;20058;-60
2022/09/04 04:52:05;;;;;;;12.18;9.82;;;19.70;59.50;;;;;;5004604;28;20057;-61
2022/09/04 04:54:51;;;;;;;11.48;8.85;;;19.70;59.50;;;;;;5021737;28;20409;-60
2022/09/04 04:57:29;;;;;;;12.25;9.05;;;19.70;59.50;;;;;;5022316;28;20513;-60
2022/09/04 05:00:10;;;;;;;10.88;9.13;;;19.70;59.50;;;;;;5017379;28;20057;-57
2022/09/04 05:02:48;;;;;;;12.60;10.02;;;19.70;59.40;;;;;;5025534;28;20053;-59
2022/09/04 05:05:21;;;;;;;11.88;9.32;;;19.70;59.50;;;;;;5024911;28;20064;-60
2022/09/04 05:07:59;;;;;;;16.08;11.52;;;19.70;59.50;;;;;;5024961;28;20057;-60
2022/09/04 05:10:35;;;;;;;12.30;9.82;;;19.70;60.10;;;;;;5017631;28;20150;-60
2022/09/04 05:13:11;;;;;;;12.30;10.15;;;19.70;59.50;;;;;;5017155;28;20062;-60
2022/09/04 05:15:45;;;;;;;11.63;9.73;;;19.70;59.60;;;;;;5018361;28;20060;-59
2022/09/04 05:18:20;;;;;;;10.23;8.15;;;19.70;59.60;;;;;;5013080;28;20411;-60
2022/09/04 05:20:53;;;;;;;10.55;8.57;;;19.70;59.60;;;;;;5013706;28;20049;-60
2022/09/04 05:23:31;;;;;;;11.40;8.52;;;19.70;59.60;;;;;;5024503;28;20053;-60
2022/09/04 05:26:10;;;;;;;11.15;8.25;;;19.70;59.60;;;;;;5020349;28;20057;-60
2022/09/04 05:28:50;;;;;;;17.42;9.10;;;19.70;59.60;;;;;;5019952;28;20413;-60
2022/09/04 05:31:24;;;;;;;10.35;8.65;;;19.70;59.70;;;;;;5014680;28;20041;-51
2022/09/04 05:33:55;;;;;;;;;;;19.70;59.60;;;;;;5024507;28;20053;-60
2022/09/04 05:36:32;;;;;;;9.32;7.97;;;19.70;59.30;;;;;;5010811;28;19929;-60
2022/09/04 05:39:07;;;;;;;9.98;7.95;;;19.70;59.40;;;;;;5024070;28;20068;-56
2022/09/04 05:41:44;;;;;;;9.75;7.97;;;19.70;59.50;;;;;;5019416;28;20473;-61
2022/09/04 05:44:36;;;;;;;9.55;7.95;;;19.70;59.60;;;;;;5024186;28;20532;-60
2022/09/04 05:47:17;;;;;;;8.93;7.30;;;19.70;59.70;;;;;;5023980;28;20061;-60
2022/09/04 05:50:04;;;;;;;8.93;7.60;;;19.70;59.70;;;;;;5021421;28;20050;-61
2022/09/04 05:53:05;;;;;;;8.48;7.30;;;19.70;59.80;;;;;;5023983;28;20057;-59
2022/09/04 05:56:13;;;;;;;9.50;7.07;;;19.70;59.80;;;;;;5020552;28;20053;-61
2022/09/04 05:58:57;;;;;;;8.40;7.15;;;19.70;59.80;;;;;;5022008;28;20060;-58
2022/09/04 06:01:56;;;;;;;8.23;7.03;;;19.70;59.80;;;;;;5017988;28;20056;-61
2022/09/04 06:04:54;;;;;;;26.67;17.75;;;19.70;59.90;;;;;;5023487;28;20489;-60
2022/09/04 06:07:29;;;;;;;13.23;10.20;;;19.70;59.90;;;;;;5023354;28;20061;-61
2022/09/04 06:10:02;;;;;;;10.43;8.02;;;19.70;59.90;;;;;;5019819;28;20072;-61
2022/09/04 06:12:48;;;;;;;10.10;7.55;;;19.70;59.90;;;;;;5017371;28;20405;-59
2022/09/04 06:15:28;;;;;;;11.05;7.80;;;19.70;60.00;;;;;;5013149;28;20425;-57
2022/09/04 06:18:11;;;;;;;8.60;6.95;;;19.80;60.20;;;;;;5020373;28;20524;-60
2022/09/04 06:20:58;;;;;;;8.75;7.40;;;19.80;60.40;;;;;;5022004;28;20569;-56
2022/09/04 06:23:52;;;;;;;8.68;7.13;;;19.80;60.30;;;;;;5020722;28;20057;-60
2022/09/04 06:26:37;;;;;;;8.10;6.80;;;19.80;60.50;;;;;;5022774;28;20057;-61
2022/09/04 06:29:24;;;;;;;7.80;6.57;;;19.80;60.30;;;;;;5021900;28;20064;-61
2022/09/04 06:32:33;;;;;;;7.60;6.10;;;19.80;60.30;;;;;;5020039;28;20053;-60
2022/09/04 06:35:17;;;;;;;8.63;6.93;;;19.80;60.40;;;;;;5023746;28;20053;-58
2022/09/04 06:37:57;;;;;;;7.82;6.22;;;19.90;60.40;;;;;;5022653;28;20056;-61
2022/09/04 06:40:42;;;;;;;8.40;6.88;;;19.90;60.40;;;;;;5018464;28;20064;-61
2022/09/04 06:43:19;;;;;;;8.52;6.82;;;19.90;60.50;;;;;;5023533;28;20490;-61
2022/09/04 06:45:58;;;;;;;7.90;6.53;;;19.90;60.50;;;;;;5022934;28;20049;-60
2022/09/04 06:48:39;;;;;;;8.20;6.57;;;19.90;60.60;;;;;;5022687;28;20052;-60
2022/09/04 06:51:19;;;;;;;9.27;7.28;;;19.90;60.80;;;;;;5019403;28;20053;-53
2022/09/04 06:53:56;;;;;;;12.77;8.18;;;20.00;60.30;;;;;;5022230;28;20057;-60
2022/09/04 06:56:40;;;;;;;9.38;6.72;;;20.00;61.10;;;;;;5022261;28;20053;-61
2022/09/04 06:59:27;;;;;;;8.53;6.50;;;20.00;61.10;;;;;;5023080;28;20065;-59
2022/09/04 07:02:05;;;;;;;8.18;6.60;;;20.00;61.70;;;;;;5017024;28;20057;-62
2022/09/04 07:04:51;;;;;;;7.72;6.43;;;20.10;61.00;;;;;;5020548;28;20049;-61
2022/09/04 07:07:26;;;;;;;7.63;5.90;;;20.10;61.10;;;;;;5022465;28;20421;-61
2022/09/04 07:09:57;;;;;;;8.90;6.82;;;20.10;61.00;;;;;;5018687;28;20108;-60
2022/09/04 07:12:42;;;;;;;7.20;5.88;;;20.10;61.00;;;;;;5022899;28;20050;-62
2022/09/04 07:15:36;;;;;;;7.40;5.88;;;20.20;61.30;;;;;;5020259;28;20049;-61
2022/09/04 07:18:12;;;;;;;6.72;5.50;;;20.20;61.40;;;;;;5019832;28;20080;-61
2022/09/04 07:20:53;;;;;;;6.50;5.53;;;20.20;61.20;;;;;;5017582;28;20053;-61
2022/09/04 07:23:34;;;;;;;7.72;5.90;;;20.30;61.50;;;;;;5021903;28;20053;-61
2022/09/04 07:26:12;;;;;;;7.32;5.50;;;20.30;61.60;;;;;;5018698;28;20425;-60
2022/09/04 07:29:02;;;;;;;6.45;4.95;;;20.30;61.50;;;;;;5021748;28;20049;-59
2022/09/04 07:31:38;;;;;;;5.55;4.75;;;20.30;61.30;;;;;;5018825;28;20061;-61
2022/09/04 07:34:11;;;;;;;5.30;4.68;;;20.40;61.20;;;;;;5021789;28;20061;-57
2022/09/04 07:36:45;;;;;;;6.18;5.30;;;20.40;61.20;;;;;;5021544;28;20505;-61
2022/09/04 07:39:20;;;;;;;7.05;5.30;;;20.50;61.20;;;;;;5020457;28;20057;-59
2022/09/04 07:41:56;;;;;;;6.55;4.78;;;20.50;61.10;;;;;;5016106;28;20523;-61
2022/09/04 07:44:28;;;;;;;7.22;5.32;;;20.50;61.10;;;;;;5021306;28;20049;-61
2022/09/04 07:47:07;;;;;;;5.32;4.68;;;20.50;61.10;;;;;;5021608;28;20058;-61
2022/09/04 07:49:40;;;;;;;6.93;5.32;;;20.60;61.10;;;;;;5020177;28;20057;-57
2022/09/04 07:52:18;;;;;;;5.35;4.45;;;20.60;61.20;;;;;;5020675;28;20057;-58
2022/09/04 07:55:03;;;;;;;5.07;4.57;;;20.60;61.20;;;;;;5019653;28;20064;-60
2022/09/04 07:57:51;;;;;;;4.93;4.10;;;20.60;61.10;;;;;;5021464;28;20061;-60
2022/09/04 08:00:21;;;;;;;5.32;4.40;;;20.70;61.10;;;;;;5016889;28;20061;-61
2022/09/04 08:03:03;;;;;;;4.70;3.92;;;20.70;61.10;;;;;;5021934;28;20129;-61
2022/09/04 08:05:34;;;;;;;5.88;4.32;;;20.70;61.10;;;;;;5022229;28;20489;-61
2022/09/04 08:08:28;;;;;;;4.43;3.90;;;20.80;61.20;;;;;;5021494;28;20493;-57
2022/09/04 08:11:25;;;;;;;4.75;4.22;;;20.80;61.10;;;;;;5016947;28;20066;-59
2022/09/04 08:14:17;;;;;;;5.28;3.85;;;20.90;61.50;;;;;;5021588;28;20057;-59
2022/09/04 08:16:56;;;;;;;4.60;3.95;;;20.90;61.50;;;;;;5018127;28;20046;-56
2022/09/04 08:19:41;;;;;;;6.53;4.60;;;21.00;61.30;;;;;;5021342;28;20053;-54
2022/09/04 08:22:13;;;;;;;5.20;4.32;;;21.00;61.30;;;;;;5025034;28;20053;-61
2022/09/04 08:25:05;;;;;;;5.00;4.25;;;21.10;61.30;;;;;;5023924;28;20501;-60
2022/09/04 08:27:58;;;;;;;5.60;3.40;;;21.10;61.30;;;;;;5022739;28;20417;-60
2022/09/04 08:30:33;;;;;;;4.70;3.88;;;21.10;61.30;;;;;;5024223;28;20061;-60
2022/09/04 08:33:28;;;;;;;5.30;3.92;;;21.20;61.20;;;;;;5025276;28;20061;-58
2022/09/04 08:36:00;;;;;;;4.95;4.10;;;21.30;61.50;;;;;;5025208;28;20057;-59
2022/09/04 08:38:41;;;;;;;3.78;3.45;;;21.30;61.20;;;;;;5026386;28;20061;-61
2022/09/04 08:41:32;;;;;;;3.85;3.35;;;21.40;61.10;;;;;;5020939;28;20053;-59
2022/09/04 08:44:32;;;;;;;4.05;3.60;;;21.40;61.00;;;;;;5025474;28;20068;-59
2022/09/04 08:47:44;;;;;;;6.75;3.53;;;21.40;60.80;;;;;;5025203;28;20053;-57
2022/09/04 08:50:35;;;;;;;5.95;4.60;;;21.50;60.70;;;;;;5022084;28;20053;-61
2022/09/04 08:53:29;;;;;;;4.25;3.50;;;21.50;60.60;;;;;;5025160;28;20502;-60
2022/09/04 08:56:21;;;;;;;4.35;3.30;;;21.60;60.60;;;;;;5023726;28;20049;-59
2022/09/04 08:59:30;;;;;;;3.47;3.15;;;21.70;60.60;;;;;;5025332;28;20045;-60
2022/09/04 09:02:32;;;;;;;4.20;3.20;;;21.70;60.90;;;;;;5023163;28;20053;-59
2022/09/04 09:05:38;;;;;;;4.55;3.50;;;21.80;60.70;;;;;;4999373;28;20049;-60
2022/09/04 09:08:36;;;;;;;3.50;2.92;;;21.80;60.30;;;;;;5024585;28;20045;-61
2022/09/04 09:11:59;;;;;;;4.18;3.22;;;21.90;60.30;;;;;;5020873;28;20053;-59
2022/09/04 09:14:54;;;;;;;3.15;2.83;;;21.90;60.10;;;;;;5024184;28;20421;-60
2022/09/04 09:17:37;;;;;;;3.53;2.80;;;22.00;60.30;;;;;;5010729;28;20046;-55
2022/09/04 09:20:27;;;;;;;5.03;3.70;;;22.10;60.40;;;;;;5008210;28;20060;-60
2022/09/04 09:23:18;;;;;;;3.72;2.75;;;22.10;60.40;;;;;;5020596;28;20053;-60
2022/09/04 09:26:10;;;;;;;3.72;2.95;;;22.20;60.30;;;;;;5019883;28;20050;-57
2022/09/04 09:29:26;;;;;;;4.38;2.70;;;22.20;60.20;;;;;;5017688;28;20405;-60
2022/09/04 09:32:41;;;;;;;3.72;2.65;;;22.30;60.10;;;;;;4955415;28;20443;-61
2022/09/04 09:35:29;;;;;;;;;;;22.40;59.90;;;;;;5017737;28;20064;-60
2022/09/04 09:41:45;;;;;;;4.07;2.90;;;22.60;59.40;;;;;;5011969;28;20045;-59
2022/09/04 09:44:52;;;;;;;3.45;2.88;;;22.60;59.40;;;;;;5019699;28;20509;-60
2022/09/04 09:47:50;;;;;;;4.70;3.03;;;22.60;59.40;;;;;;5022476;28;20057;-60
2022/09/04 09:50:47;;;;;;;3.20;2.88;;;22.70;59.40;;;;;;5018314;28;20060;-60
2022/09/04 09:54:02;;;;;;;3.92;2.80;;;22.80;59.50;;;;;;4995170;28;20060;-60
2022/09/04 09:56:54;;;;;;;5.53;3.25;;;22.80;59.30;;;;;;5020690;28;20527;-59
2022/09/04 09:59:43;;;;;;;3.47;2.85;;;22.90;59.20;;;;;;5023078;28;20073;-59
2022/09/04 10:02:36;;;;;;;3.30;3.00;;;22.90;59.20;;;;;;5017863;28;20053;-60
2022/09/04 10:05:31;;;;;;;5.10;2.58;;;23.00;59.10;;;;;;5021777;28;20080;-60
2022/09/04 10:08:17;;;;;;;6.38;2.22;;;23.10;59.00;;;;;;5021367;28;20072;-60
2022/09/04 10:11:05;;;;;;;3.05;2.75;;;23.10;58.80;;;;;;5019120;28;20068;-60
2022/09/04 10:14:11;;;;;;;3.15;2.13;;;23.20;58.60;;;;;;5019890;28;20054;-60
2022/09/04 10:17:18;;;;;;;2.40;2.05;;;23.20;58.50;;;;;;5016164;28;20056;-60
2022/09/04 10:20:19;;;;;;;4.30;2.92;;;23.30;58.20;;;;;;5012272;28;20054;-59
2022/09/04 10:23:19;;;;;;;3.53;2.58;;;23.40;58.10;;;;;;5011251;28;20054;-59
2022/09/04 10:26:04;;;;;;;5.20;2.10;;;23.40;57.80;;;;;;5014492;28;20138;-60
2022/09/04 10:29:14;;;;;;;3.10;2.15;;;23.50;57.80;;;;;;5022844;28;20045;-55
2022/09/04 10:31:54;;;;;;;2.30;1.98;;;23.60;57.60;;;;;;5016671;28;20053;-60
2022/09/04 10:34:45;;;;;;;2.58;2.10;;;23.60;57.50;;;;;;5021466;28;20057;-60
2022/09/04 10:37:30;;;;;;;2.15;1.60;;;23.70;57.40;;;;;;5014742;28;20053;-60
2022/09/04 10:43:09;;;;;;;1.75;1.65;;;23.80;57.30;;;;;;5020194;28;20056;-60
2022/09/04 10:45:38;;;;;;;1.95;1.67;;;23.80;57.20;;;;;;5019215;28;20481;-60
2022/09/04 10:48:45;;;;;;;1.65;1.55;;;23.90;56.80;;;;;;5010523;28;20058;-60
2022/09/04 10:51:35;;;;;;;4.70;1.80;;;24.00;56.40;;;;;;5008736;28;20068;-57
2022/09/04 10:54:39;;;;;;;1.83;1.40;;;24.10;55.60;;;;;;5010856;28;20450;-59
2022/09/04 10:57:26;;;;;;;2.20;1.70;;;24.10;55.60;;;;;;5013912;28;20056;-59
2022/09/04 11:00:06;;;;;;;3.20;1.92;;;24.20;55.40;;;;;;5013571;28;21047;-58
2022/09/04 11:03:14;;;;;;;2.83;1.60;;;24.20;55.20;;;;;;5014840;28;20049;-58
2022/09/04 11:06:11;;;;;;;2.53;1.80;;;24.30;55.10;;;;;;5019540;28;20061;-60
2022/09/04 11:09:16;;;;;;;4.47;2.40;;;24.40;54.80;;;;;;5022379;28;20049;-59
2022/09/04 11:11:59;;;;;;;2.33;1.63;;;24.50;54.50;;;;;;5008850;28;20053;-60
2022/09/04 11:14:53;;;;;;;2.17;1.67;;;24.50;54.50;;;;;;5013194;28;20054;-60
2022/09/04 11:17:50;;;;;;;3.00;1.88;;;24.50;54.40;;;;;;5017698;28;20061;-60
2022/09/04 11:20:43;;;;;;;3.15;1.50;;;24.60;54.10;;;;;;5014789;28;20065;-59
2022/09/04 11:23:52;;;;;;;3.55;1.73;;;24.70;53.80;;;;;;5017840;28;20053;-59
2022/09/04 11:26:40;;;;;;;1.75;1.55;;;24.70;53.80;;;;;;5016819;28;20064;-59
2022/09/04 11:29:34;;;;;;;3.13;1.35;;;24.80;53.70;;;;;;5019403;28;20425;-58
2022/09/04 11:32:16;;;;;;;3.57;1.80;;;24.90;53.50;;;;;;5015309;28;20124;-56
2022/09/04 11:35:21;;;;;;;2.28;1.80;;;24.90;52.80;;;;;;5020530;28;20524;-53
2022/09/04 11:37:59;;;;;;;2.63;1.80;;;25.00;53.10;;;;;;5016666;28;20053;-60
2022/09/04 11:41:01;;;;;;;1.83;1.60;;;25.10;53.00;;;;;;5014746;28;20041;-58
2022/09/04 11:43:48;;;;;;;3.85;1.60;;;25.20;52.60;;;;;;5014357;28;20061;-61
2022/09/04 11:46:38;;;;;;;3.92;2.03;;;25.20;52.80;;;;;;5016045;28;20053;-58
2022/09/04 11:49:39;;;;;;;4.28;1.80;;;25.30;52.40;;;;;;5016021;28;20045;-58
2022/09/04 11:52:25;;;;;;;4.63;1.50;;;25.40;52.30;;;;;;5002239;28;20064;-58
2022/09/04 11:55:21;;;;;;;1.85;1.50;;;25.50;51.60;;;;;;5015777;28;20050;-59
2022/09/04 11:58:16;;;;;;;2.28;1.63;;;25.50;51.60;;;;;;5015580;28;20057;-60
2022/09/04 12:00:58;;;;;;;2.30;1.58;;;25.70;51.60;;;;;;5010526;28;20045;-59
2022/09/04 12:03:51;;;;;;;3.85;1.60;;;25.70;51.50;;;;;;5016500;28;20045;-59
2022/09/04 12:06:49;;;;;;;8.32;1.40;;;25.80;50.80;;;;;;5020301;28;20058;-59
2022/09/04 12:09:47;;;;;;;2.78;1.60;;;25.90;51.00;;;;;;5012040;28;20053;-57
2022/09/04 12:12:31;;;;;;;1.40;1.30;;;26.00;50.80;;;;;;5010662;28;20060;-59
2022/09/04 12:15:21;;;;;;;;;;;26.00;50.50;;;;;;5020487;28;20390;-60
2022/09/04 12:18:32;;;;;;;3.45;1.30;;;26.10;51.00;;;;;;5011182;28;19921;-59
2022/09/04 12:21:25;;;;;;;1.95;1.20;;;26.20;49.80;;;;;;4953615;28;20084;-59
2022/09/04 12:24:28;;;;;;;2.28;1.08;;;26.20;49.60;;;;;;5011360;28;20045;-60
2022/09/04 12:27:20;;;;;;;1.83;0.93;;;26.30;49.30;;;;;;5000434;28;20417;-59
2022/09/04 12:30:07;;;;;;;2.42;1.15;;;26.30;48.40;;;;;;5016502;28;20057;-59
2022/09/04 12:33:18;;;;;;;1.90;1.20;;;26.30;48.50;;;;;;5018024;28;20410;-60
2022/09/04 12:36:21;;;;;;;1.83;0.93;;;26.40;47.90;;;;;;5016454;28;20049;-58
2022/09/04 12:39:19;;;;;;;1.25;1.10;;;26.50;48.10;;;;;;5005739;28;20065;-60
2022/09/04 12:41:55;;;;;;;1.83;0.90;;;26.50;47.50;;;;;;5012059;28;20379;-60
2022/09/04 12:44:37;;;;;;;1.65;0.70;;;26.50;47.40;;;;;;5022469;28;20053;-60
2022/09/04 12:47:21;;;;;;;1.35;1.15;;;26.50;46.80;;;;;;5021156;28;20399;-57
2022/09/04 12:50:04;;;;;;;1.27;0.93;;;26.50;45.60;;;;;;5015539;28;20053;-52
2022/09/04 12:52:55;;;;;;;1.35;0.95;;;26.60;45.30;;;;;;5020975;28;20061;-59
2022/09/04 12:55:31;;;;;;;1.88;1.00;;;26.60;45.90;;;;;;5013857;28;20057;-58
2022/09/04 12:58:11;;;;;;;2.28;1.77;;;26.70;46.20;;;;;;5020446;28;20049;-60
2022/09/04 13:00:48;;;;;;;2.17;1.10;;;26.80;45.80;;;;;;5014394;28;20057;-60
2022/09/04 13:03:27;;;;;;;1.30;1.10;;;26.90;45.90;;;;;;5021872;28;20057;-60
2022/09/04 13:06:08;;;;;;;2.22;0.90;;;26.90;45.70;;;;;;5013372;28;20706;-61
2022/09/04 13:08:48;;;;;;;1.25;0.80;;;27.00;45.10;;;;;;5021652;28;20049;-60
2022/09/04 13:11:33;;;;;;;1.27;0.60;;;27.10;45.10;;;;;;5017369;28;20053;-60
2022/09/04 13:14:24;;;;;;;1.92;0.73;;;27.20;44.80;;;;;;5017694;28;20512;-61
2022/09/04 13:17:00;;;;;;;0.75;0.60;;;27.20;44.30;;;;;;5015416;28;20050;-61
2022/09/04 13:19:37;;;;;;;0.70;0.70;;;27.30;43.20;;;;;;5016960;28;20054;-60
2022/09/04 13:22:17;;;;;;;2.42;0.70;;;27.40;43.60;;;;;;5020310;28;20061;-59
2022/09/04 13:24:58;;;;;;;4.53;1.10;;;27.50;43.40;;;;;;5019285;28;20069;-60
2022/09/04 13:27:37;;;;;;;1.83;1.13;;;27.50;44.00;;;;;;5018910;28;20803;-61
2022/09/04 13:30:08;;;;;;;1.50;0.90;;;27.60;43.30;;;;;;5018475;28;20053;-61
2022/09/04 13:33:00;;;;;;;2.20;1.05;;;27.60;43.60;;;;;;5019478;28;20057;-61
2022/09/04 13:35:41;;;;;;;1.58;0.93;;;27.60;44.10;;;;;;5012073;28;20069;-56
2022/09/04 13:38:26;;;;;;;1.27;0.85;;;27.60;41.90;;;;;;5017245;28;20049;-60
2022/09/04 13:41:25;;;;;;;0.85;0.55;;;27.60;42.80;;;;;;5023429;28;20393;-58
2022/09/04 13:44:17;;;;;;;1.27;0.80;;;27.60;42.40;;;;;;5022924;28;20080;-59
2022/09/04 13:46:53;;;;;;;1.77;0.77;;;27.60;42.20;;;;;;5020844;28;20422;-59
2022/09/04 13:49:26;;;;;;;1.45;0.77;;;27.60;41.40;;;;;;5014178;28;20394;-58
2022/09/04 13:52:00;;;;;;;0.80;0.80;;;27.60;41.70;;;;;;5015795;28;20064;-58
2022/09/04 13:54:32;;;;;;;0.60;0.60;;;27.60;42.30;;;;;;5020703;28;20064;-59
2022/09/04 13:57:06;;;;;;;1.10;0.70;;;27.60;42.80;;;;;;5020649;28;20081;-59
2022/09/04 13:59:37;;;;;;;1.75;0.80;;;27.60;42.30;;;;;;5009925;28;20049;-58
2022/09/04 14:02:12;;;;;;;1.02;0.70;;;27.60;42.40;;;;;;5015531;28;20060;-59
2022/09/04 14:04:43;;;;;;;1.20;0.80;;;27.60;42.50;;;;;;5018503;28;20053;-57
2022/09/04 14:07:23;;;;;;;2.08;1.00;;;27.60;42.80;;;;;;5009661;28;20509;-59
2022/09/04 14:09:54;;;;;;;1.25;0.80;;;27.60;43.10;;;;;;5017831;28;20543;-58
2022/09/04 14:12:46;;;;;;;1.50;1.00;;;27.70;43.00;;;;;;5019171;28;20528;-59
2022/09/04 14:15:31;;;;;;;1.02;0.80;;;27.70;43.00;;;;;;5021707;28;20053;-59
2022/09/04 14:18:12;;;;;;;1.63;1.02;;;27.70;43.30;;;;;;5022953;28;20516;-59
2022/09/04 14:20:50;;;;;;;1.20;1.00;;;27.70;43.40;;;;;;5023261;28;20505;-55